This is the latest recevied weather packets stored in our database for station/object VK3ANZ. If no packets are shown the sender has not sent any weather packets the latest 10 day(s).
| Time | Temp. | Humidity | Pressure | Rain* | Wind** | Luminosity | Snow |
|---|---|---|---|---|---|---|---|
| 1777560318 | 13.33° C | 32% | 1025.3 hPa | 0 mm | - | 0 W/m² | - |
| 1777557323 | 14.44° C | 30% | 1025.5 hPa | 0 mm | - | 0 W/m² | - |
| 1777555527 | 15° C | 26% | 1025.5 hPa | 0 mm | - | 0 W/m² | - |
| 1777554327 | 15.56° C | 25% | 1025.6 hPa | 0 mm | - | 0 W/m² | - |
| 1777548919 | 15° C | 25% | 1025.8 hPa | 0 mm | - | 0 W/m² | - |
| 1777545927 | 15.56° C | 25% | 1025.8 hPa | 0 mm | - | 0 W/m² | - |
| 1777542326 | 16.67° C | 23% | 1025.7 hPa | 0 mm | - | 0 W/m² | - |
| 1777539927 | 17.78° C | 20% | 1025.6 hPa | 0 mm | - | 0 W/m² | - |
| 1777539318 | 18.33° C | 19% | 1025.5 hPa | 0 mm | - | 0 W/m² | - |
| 1777538119 | 18.89° C | 21% | 1025.4 hPa | 0 mm | - | 0 W/m² | - |
| 1777536918 | 19.44° C | 19% | 1025.2 hPa | 0 mm | - | 0 W/m² | - |
| 1777533318 | 22.22° C | 16% | 1024.9 hPa | 0 mm | - | 9 W/m² | - |
| 1777531526 | 23.33° C | 12% | 1025.1 hPa | 0 mm | - | 36 W/m² | - |
| 1777527946 | 25° C | 10% | 1025.1 hPa | 0 mm | - | 71 W/m² | - |
| 1777523146 | 25° C | 10% | 1025.7 hPa | 0 mm | - | 123 W/m² | - |
| 1777518325 | 23.33° C | 11% | 1026.4 hPa | 0 mm | - | 264 W/m² | - |
| 1777517717 | 22.22° C | 12% | 1026.7 hPa | 0 mm | - | 234 W/m² | - |
| 1777512345 | 22.22° C | 14% | 1027.8 hPa | 0 mm | - | 235 W/m² | - |
| 1777509925 | 21.67° C | 18% | 1028.3 hPa | 0 mm | - | 315 W/m² | - |
| 1777503317 | 16.11° C | 31% | 1029 hPa | 0 mm | - | 250 W/m² | - |
| 1777502718 | 14.44° C | 33% | 1028.9 hPa | 0 mm | - | 229 W/m² | - |
| 1777502117 | 12.78° C | 44% | 1028.8 hPa | 0 mm | - | 209 W/m² | - |
| 1777497316 | 10° C | 69% | 1028.1 hPa | 0 mm | - | 9 W/m² | - |
| 1777494344 | 10.56° C | 57% | 1027.7 hPa | 0 mm | - | 0 W/m² | - |
| 1777493118 | 10.56° C | 53% | 1027.5 hPa | 0 mm | - | 0 W/m² | - |
* Rain latest hour (hover to see other rain measurements)
** Current wind speed in m/s (hover to see current wind gust speed)